createdAt,value
2023-09-19T00:00:44.828Z,100704.17
2023-09-19T00:03:13.562Z,100704.87
2023-09-19T00:05:40.728Z,100707.98
2023-09-19T00:08:07.933Z,100707.91
2023-09-19T00:10:38.866Z,100711.19
2023-09-19T00:13:06.139Z,100711.87
2023-09-19T00:15:41.640Z,100708.27
2023-09-19T00:18:10.386Z,100710.81
2023-09-19T00:20:37.894Z,100706.40
2023-09-19T00:23:05.956Z,100710.64
2023-09-19T00:25:33.286Z,100708.17
2023-09-19T00:28:00.544Z,100709.75
2023-09-19T00:30:30.143Z,100716.90
2023-09-19T00:32:57.663Z,100729.64
2023-09-19T00:35:25.255Z,100722.36
2023-09-19T00:37:52.853Z,100722.79
2023-09-19T00:40:20.180Z,100725.70
2023-09-19T00:42:47.998Z,100718.63
2023-09-19T00:45:16.388Z,100711.09
2023-09-19T00:47:52.139Z,100712.71
2023-09-19T00:50:21.898Z,100715.98
2023-09-19T00:52:50.845Z,100716.46
2023-09-19T00:55:20.956Z,100714.59
2023-09-19T00:57:50.351Z,100718.72
2023-09-19T01:00:19.993Z,100720.42
2023-09-19T01:02:47.562Z,100716.59
2023-09-19T01:05:17.297Z,100713.31
2023-09-19T01:07:49.534Z,100714.48
2023-09-19T01:10:21.061Z,100714.80
2023-09-19T01:13:22.485Z,100713.41
2023-09-19T01:16:01.682Z,100713.88
2023-09-19T01:18:39.725Z,100713.81
2023-09-19T01:21:31.604Z,100714.02
2023-09-19T01:24:11.197Z,100710.60
2023-09-19T01:26:47.963Z,100713.82
2023-09-19T01:29:39.806Z,100714.06
2023-09-19T01:32:11.921Z,100715.14
2023-09-19T01:34:46.408Z,100714.15
2023-09-19T01:37:15.925Z,100717.14
2023-09-19T01:39:45.086Z,100715.50
2023-09-19T01:42:23.420Z,100718.11
2023-09-19T01:44:56.410Z,100715.77
2023-09-19T01:47:37.086Z,100713.45
2023-09-19T01:50:33.091Z,100712.86
2023-09-19T01:53:14.847Z,100712.86
2023-09-19T01:55:44.373Z,100716.59
2023-09-19T01:58:33.955Z,100720.53
2023-09-19T02:01:01.254Z,100714.18
2023-09-19T02:03:29.481Z,100709.58
2023-09-19T02:05:56.878Z,100707.65
2023-09-19T02:08:26.806Z,100702.17
2023-09-19T02:10:53.916Z,100703.50
2023-09-19T02:13:21.682Z,100705.11
2023-09-19T02:15:48.782Z,100699.62
2023-09-19T02:18:16.594Z,100699.75
2023-09-19T02:20:46.632Z,100697.63
2023-09-19T02:23:13.901Z,100693.90
2023-09-19T02:25:42.012Z,100701.02
2023-09-19T02:28:09.894Z,100698.66
2023-09-19T02:30:37.459Z,100698.19
2023-09-19T02:33:06.289Z,100693.67
2023-09-19T02:35:36.983Z,100695.55
2023-09-19T02:38:07.005Z,100698.05
2023-09-19T02:40:37.208Z,100688.23
2023-09-19T02:43:06.106Z,100698.52
2023-09-19T02:45:34.013Z,100695.76
2023-09-19T02:48:03.884Z,100696.69
2023-09-19T02:50:31.742Z,100697.11
2023-09-19T02:53:00.564Z,100696.83
2023-09-19T02:55:28.954Z,100697.11
2023-09-19T02:57:56.264Z,100695.63
2023-09-19T03:00:23.900Z,100697.65
2023-09-19T03:02:52.972Z,100699.14
2023-09-19T03:05:21.750Z,100698.57
2023-09-19T03:07:51.397Z,100697.37
2023-09-19T03:10:19.960Z,100695.36
2023-09-19T03:12:48.287Z,100695.73
2023-09-19T03:15:18.474Z,100693.38
2023-09-19T03:17:49.253Z,100693.27
2023-09-19T03:20:21.852Z,100691.79
2023-09-19T03:22:49.762Z,100689.56
2023-09-19T03:25:17.803Z,100688.87
2023-09-19T03:27:48.041Z,100693.77
2023-09-19T03:30:15.431Z,100695.01
2023-09-19T03:32:47.591Z,100693.23
2023-09-19T03:35:15.742Z,100696.41
2023-09-19T03:37:44.677Z,100691.73
2023-09-19T03:40:12.346Z,100691.20
2023-09-19T03:42:42.824Z,100696.48
2023-09-19T03:45:13.836Z,100694.36
2023-09-19T03:47:47.770Z,100695.36
2023-09-19T03:50:18.058Z,100696.76
2023-09-19T03:52:46.093Z,100693.08
2023-09-19T03:55:13.730Z,100698.75
2023-09-19T03:57:48.746Z,100698.70
2023-09-19T04:00:19.460Z,100696.52
2023-09-19T04:02:47.168Z,100695.69
2023-09-19T04:05:15.187Z,100696.08
2023-09-19T04:07:43.086Z,100696.48
2023-09-19T04:10:12.246Z,100694.10
2023-09-19T04:12:57.663Z,100694.95
2023-09-19T04:15:29.740Z,100699.35
2023-09-19T04:17:58.602Z,100697.77
2023-09-19T04:20:26.497Z,100692.20
2023-09-19T04:22:53.922Z,100695.14
2023-09-19T04:25:21.822Z,100691.11
2023-09-19T04:27:49.836Z,100686.19
2023-09-19T04:30:17.912Z,100681.00
2023-09-19T04:32:51.484Z,100686.73
2023-09-19T04:35:19.064Z,100686.84
2023-09-19T04:37:48.800Z,100686.41
2023-09-19T04:40:19.306Z,100683.02
2023-09-19T04:42:58.642Z,100676.94
2023-09-19T04:45:27.420Z,100680.73
2023-09-19T04:47:54.921Z,100670.73
2023-09-19T04:50:28.638Z,100670.57
2023-09-19T04:52:55.871Z,100670.53
2023-09-19T04:55:23.322Z,100670.33
2023-09-19T04:57:51.438Z,100669.19
2023-09-19T05:00:19.729Z,100673.05
2023-09-19T05:02:50.319Z,100673.76
2023-09-19T05:05:19.528Z,100659.59
2023-09-19T05:07:47.572Z,100670.73
2023-09-19T05:10:15.362Z,100668.61
2023-09-19T05:12:45.916Z,100669.27
2023-09-19T05:15:13.650Z,100664.77
2023-09-19T05:17:42.603Z,100663.77
2023-09-19T05:20:25.570Z,100662.67
2023-09-19T05:23:03.776Z,100663.31
2023-09-19T05:25:39.218Z,100660.06
2023-09-19T05:28:12.270Z,100661.92
2023-09-19T05:30:41.364Z,100656.11
2023-09-19T05:33:32.008Z,100659.19
2023-09-19T05:35:59.984Z,100650.73
2023-09-19T05:38:28.323Z,100650.27
2023-09-19T05:40:55.537Z,100652.14
2023-09-19T05:43:24.407Z,100657.30
2023-09-19T05:45:52.801Z,100655.44
2023-09-19T05:48:21.799Z,100660.11
2023-09-19T05:51:02.434Z,100664.04
2023-09-19T05:53:31.309Z,100664.05
2023-09-19T05:56:01.719Z,100665.67
2023-09-19T05:58:31.001Z,100661.85
2023-09-19T06:01:10.880Z,100664.69
2023-09-19T06:03:39.008Z,100655.28
2023-09-19T06:06:07.224Z,100665.14
2023-09-19T06:08:35.093Z,100658.84
2023-09-19T06:11:02.944Z,100659.53
2023-09-19T06:13:30.440Z,100664.36
2023-09-19T06:16:12.053Z,100666.78
2023-09-19T06:25:21.343Z,100668.66
2023-09-19T06:27:55.344Z,100657.72
2023-09-19T06:30:27.053Z,100664.78
2023-09-19T06:32:59.521Z,100670.06
2023-09-19T06:35:55.641Z,100674.13
2023-09-19T06:38:23.213Z,100661.71
2023-09-19T06:40:52.704Z,100673.06
2023-09-19T06:43:20.945Z,100671.45
2023-09-19T06:45:49.816Z,100671.60
2023-09-19T06:48:22.143Z,100669.77
2023-09-19T06:51:16.701Z,100666.70
2023-09-19T06:54:41.330Z,100671.94
2023-09-19T06:57:17.430Z,100668.95
2023-09-19T06:59:47.539Z,100670.42
2023-09-19T07:16:01.685Z,100666.10
2023-09-19T07:18:34.075Z,100658.39
2023-09-19T07:21:35.387Z,100669.05
2023-09-19T07:24:07.186Z,100658.88
2023-09-19T07:26:36.025Z,100668.11
2023-09-19T07:29:08.135Z,100656.70
2023-09-19T07:31:39.147Z,100662.02
2023-09-19T07:34:11.599Z,100661.92
2023-09-19T07:37:15.974Z,100653.48
2023-09-19T07:40:08.169Z,100659.88
2023-09-19T07:45:49.811Z,100659.65
2023-09-19T07:48:18.421Z,100652.46
2023-09-19T07:50:46.401Z,100648.14
2023-09-19T07:53:16.094Z,100643.91
2023-09-19T07:55:49.810Z,100643.03
2023-09-19T07:58:20.223Z,100647.10
2023-09-19T08:00:53.059Z,100638.36
2023-09-19T08:03:22.276Z,100637.07
2023-09-19T08:12:09.683Z,100621.35
2023-09-19T08:14:40.800Z,100615.73
2023-09-19T08:28:01.837Z,100608.30
2023-09-19T08:30:32.895Z,100603.23
2023-09-19T08:35:53.124Z,100602.39
2023-09-19T08:38:21.609Z,100602.23
2023-09-19T08:40:50.524Z,100588.89
2023-09-19T08:43:19.329Z,100590.95
2023-09-19T08:45:48.466Z,100574.92
2023-09-19T08:49:37.294Z,100570.36
2023-09-19T08:52:11.933Z,100580.88
2023-09-19T08:54:41.160Z,100582.17
2023-09-19T08:57:13.596Z,100584.17
2023-09-19T08:59:49.265Z,100572.77
2023-09-19T09:02:20.628Z,100583.34
2023-09-19T09:04:48.861Z,100574.30
2023-09-19T09:07:18.548Z,100586.62
2023-09-19T09:09:46.678Z,100579.78
2023-09-19T09:12:17.572Z,100576.28
2023-09-19T09:14:46.798Z,100581.42
2023-09-19T09:17:15.077Z,100580.88
2023-09-19T09:19:44.561Z,100578.12
2023-09-19T09:22:13.137Z,100584.19
2023-09-19T09:25:00.341Z,100587.80
2023-09-19T09:27:28.534Z,100576.56
2023-09-19T09:30:38.253Z,100572.95
2023-09-19T09:33:13.086Z,100578.38
2023-09-19T09:35:57.997Z,100570.70
2023-09-19T09:38:29.301Z,100558.11
2023-09-19T09:41:01.117Z,100559.33
2023-09-19T09:43:31.666Z,100555.90
2023-09-19T09:46:24.503Z,100552.89
2023-09-19T09:49:15.614Z,100546.15
2023-09-19T09:51:58.753Z,100547.20
2023-09-19T09:54:34.754Z,100544.60
2023-09-19T09:57:23.913Z,100542.92
2023-09-19T09:59:56.825Z,100532.70
2023-09-19T10:02:34.902Z,100531.23
2023-09-19T10:05:42.414Z,100522.66
2023-09-19T10:08:14.281Z,100519.45
2023-09-19T10:11:07.920Z,100508.48
2023-09-19T10:13:44.790Z,100507.33
2023-09-19T10:16:16.245Z,100507.10
2023-09-19T10:18:46.280Z,100495.48
2023-09-19T10:21:15.538Z,100498.57
2023-09-19T10:23:45.158Z,100499.76
2023-09-19T10:26:13.591Z,100493.86
2023-09-19T10:28:41.827Z,100497.29
2023-09-19T10:31:12.189Z,100499.80
2023-09-19T10:33:41.681Z,100495.30
2023-09-19T10:50:25.260Z,100467.77
2023-09-19T10:53:06.791Z,100460.23
2023-09-19T10:55:36.843Z,100453.01
2023-09-19T10:58:15.309Z,100451.98
2023-09-19T11:00:57.331Z,100444.21
2023-09-19T11:03:31.665Z,100440.81
2023-09-19T11:06:26.056Z,100442.70
2023-09-19T11:09:20.917Z,100439.55
2023-09-19T11:11:54.589Z,100432.17
2023-09-19T11:14:26.459Z,100429.90
2023-09-19T11:17:07.330Z,100421.63
2023-09-19T11:20:10.672Z,100426.04
2023-09-19T11:22:56.505Z,100421.75
2023-09-19T11:25:30.824Z,100418.98
2023-09-19T11:28:08.646Z,100421.21
2023-09-19T11:30:39.624Z,100412.67
2023-09-19T11:33:32.057Z,100405.59
2023-09-19T11:36:06.713Z,100399.61
2023-09-19T11:38:55.026Z,100388.10
2023-09-19T11:43:45.236Z,100387.16
2023-09-19T11:46:13.265Z,100384.02
2023-09-19T11:48:43.047Z,100380.08
2023-09-19T11:51:29.611Z,100382.95
2023-09-19T11:54:01.548Z,100374.08
2023-09-19T11:56:29.829Z,100374.15
2023-09-19T11:58:59.664Z,100373.17
2023-09-19T12:01:38.596Z,100368.23
2023-09-19T12:04:06.803Z,100358.34
2023-09-19T12:06:35.896Z,100365.56
2023-09-19T12:09:08.611Z,100368.91
2023-09-19T12:11:44.036Z,100366.30
2023-09-19T12:14:12.196Z,100364.80
2023-09-19T12:16:40.558Z,100351.19
2023-09-19T12:19:23.978Z,100348.27
2023-09-19T12:22:11.923Z,100349.52
2023-09-19T12:24:44.137Z,100341.84
2023-09-19T12:27:13.997Z,100339.65
2023-09-19T12:29:46.467Z,100337.70
2023-09-19T12:35:32.160Z,100323.36
2023-09-19T12:38:00.401Z,100332.06
2023-09-19T12:40:34.880Z,100332.64
2023-09-19T12:43:48.188Z,100326.67
2023-09-19T12:46:20.054Z,100317.86
2023-09-19T12:48:55.442Z,100317.77
2023-09-19T12:51:26.258Z,100303.24
2023-09-19T12:53:58.819Z,100305.55
2023-09-19T12:56:28.644Z,100302.78
2023-09-19T12:59:05.198Z,100310.58
2023-09-19T13:01:33.665Z,100306.11
2023-09-19T13:04:27.502Z,100303.08
2023-09-19T13:06:56.730Z,100300.31
2023-09-19T13:09:36.615Z,100299.35
2023-09-19T13:12:09.116Z,100295.40
2023-09-19T13:14:41.858Z,100293.77
2023-09-19T13:17:21.296Z,100283.45
2023-09-19T13:19:51.538Z,100286.56
2023-09-19T13:26:53.571Z,100275.34
2023-09-19T13:29:21.743Z,100278.35
2023-09-19T13:31:50.702Z,100262.94
2023-09-19T13:34:19.211Z,100278.62
2023-09-19T13:36:49.710Z,100268.55
2023-09-19T13:43:51.048Z,100263.83
2023-09-19T13:46:28.509Z,100264.82
2023-09-19T13:48:57.188Z,100262.55
2023-09-19T13:51:29.061Z,100260.13
2023-09-19T13:54:17.333Z,100261.40
2023-09-19T13:56:50.835Z,100262.36
2023-09-19T14:03:52.668Z,100267.47
2023-09-19T14:06:21.429Z,100265.85
2023-09-19T14:08:51.329Z,100268.06
2023-09-19T14:11:21.552Z,100262.99
2023-09-19T14:13:51.128Z,100263.07
2023-09-19T14:16:19.635Z,100255.38
2023-09-19T14:18:47.894Z,100256.64
2023-09-19T14:21:16.187Z,100252.86
2023-09-19T14:23:50.143Z,100242.47
2023-09-19T14:26:24.772Z,100248.38
2023-09-19T14:28:55.931Z,100240.77
2023-09-19T14:31:26.141Z,100240.38
2023-09-19T14:34:00.537Z,100239.51
2023-09-19T14:36:29.922Z,100239.34
2023-09-19T14:38:58.711Z,100235.56
2023-09-19T14:41:27.699Z,100234.95
2023-09-19T14:43:59.251Z,100239.08
2023-09-19T14:46:27.738Z,100231.48
2023-09-19T14:49:03.638Z,100237.92
2023-09-19T14:51:31.979Z,100235.92
2023-09-19T14:57:34.499Z,100234.10
2023-09-19T15:00:03.156Z,100233.19
2023-09-19T15:02:33.648Z,100226.08
2023-09-19T15:05:03.223Z,100235.54
2023-09-19T15:07:32.481Z,100234.29
2023-09-19T15:10:00.393Z,100232.30
2023-09-19T15:12:30.717Z,100230.30
2023-09-19T15:14:58.813Z,100227.55
2023-09-19T15:17:27.676Z,100221.77
2023-09-19T15:19:58.377Z,100224.05
2023-09-19T15:22:27.410Z,100224.73
2023-09-19T15:24:56.839Z,100224.38
2023-09-19T15:27:25.033Z,100226.48
2023-09-19T15:29:53.257Z,100224.14
2023-09-19T15:32:21.306Z,100226.59
2023-09-19T15:34:49.359Z,100226.85
2023-09-19T15:37:17.620Z,100214.55
2023-09-19T15:39:47.489Z,100214.80
2023-09-19T15:42:17.539Z,100226.15
2023-09-19T15:44:47.972Z,100227.13
2023-09-19T15:47:16.310Z,100218.84
2023-09-19T15:49:45.972Z,100230.20
2023-09-19T15:52:14.104Z,100227.38
2023-09-19T15:54:46.130Z,100233.55
2023-09-19T15:57:14.051Z,100235.83
2023-09-19T15:59:41.826Z,100234.07
2023-09-19T16:02:10.030Z,100238.08
2023-09-19T16:04:40.085Z,100238.89
2023-09-19T16:07:08.209Z,100239.15
2023-09-19T16:09:36.856Z,100242.86
2023-09-19T16:12:04.949Z,100246.83
2023-09-19T16:14:32.796Z,100247.36
2023-09-19T16:17:01.359Z,100249.23
2023-09-19T16:19:29.661Z,100253.51
2023-09-19T16:21:57.425Z,100240.45
2023-09-19T16:24:29.115Z,100255.71
2023-09-19T16:27:21.823Z,100246.98
2023-09-19T16:29:53.152Z,100257.69
2023-09-19T16:32:21.836Z,100260.45
2023-09-19T16:34:49.694Z,100256.42
2023-09-19T16:37:18.590Z,100245.92
2023-09-19T16:39:46.803Z,100262.17
2023-09-19T16:42:21.323Z,100245.70
2023-09-19T16:44:51.580Z,100262.67
2023-09-19T16:47:19.752Z,100263.50
2023-09-19T16:49:47.630Z,100265.98
2023-09-19T16:52:15.585Z,100265.11
2023-09-19T16:54:43.956Z,100266.52
2023-09-19T16:57:11.753Z,100263.84
2023-09-19T16:59:41.648Z,100268.44
2023-09-19T17:02:09.831Z,100262.90
2023-09-19T17:04:37.812Z,100259.98
2023-09-19T17:07:06.760Z,100275.27
2023-09-19T17:09:35.988Z,100260.59
2023-09-19T17:12:15.555Z,100270.48
2023-09-19T17:14:51.643Z,100267.23
2023-09-19T17:17:22.727Z,100267.66
2023-09-19T17:19:52.075Z,100271.98
2023-09-19T17:22:20.826Z,100266.00
2023-09-19T17:28:10.863Z,100274.54
2023-09-19T17:30:41.404Z,100279.44
2023-09-19T17:37:23.672Z,100281.39
2023-09-19T17:39:52.595Z,100279.34
2023-09-19T17:42:23.065Z,100278.88
2023-09-19T17:44:57.105Z,100280.09
2023-09-19T17:47:32.574Z,100279.67
2023-09-19T17:50:13.558Z,100283.96
2023-09-19T17:52:46.929Z,100281.14
2023-09-19T17:55:17.918Z,100281.42
2023-09-19T17:58:42.427Z,100282.48
2023-09-19T18:02:34.942Z,100282.84
2023-09-19T18:05:05.983Z,100282.30
2023-09-19T18:07:39.404Z,100279.69
2023-09-19T18:10:09.970Z,100274.59
2023-09-19T18:12:57.500Z,100277.73
2023-09-19T18:15:36.644Z,100278.02
2023-09-19T18:25:50.045Z,100279.21
2023-09-19T18:28:19.181Z,100279.86
2023-09-19T18:30:50.053Z,100276.36
2023-09-19T18:33:19.159Z,100278.17
2023-09-19T18:36:08.615Z,100277.67
2023-09-19T18:38:42.283Z,100277.04
2023-09-19T18:42:01.391Z,100271.33
2023-09-19T18:44:56.637Z,100271.71
2023-09-19T18:51:36.377Z,100285.89
2023-09-19T18:54:15.138Z,100286.30
2023-09-19T18:56:45.132Z,100291.69
2023-09-19T18:59:27.625Z,100293.55
2023-09-19T19:22:43.408Z,100272.16
2023-09-19T19:25:12.711Z,100264.34
2023-09-19T19:27:46.845Z,100266.17
2023-09-19T19:30:19.785Z,100268.41
2023-09-19T19:41:20.343Z,100274.71
2023-09-19T19:43:53.195Z,100272.04
2023-09-19T20:01:03.559Z,100272.95
2023-09-19T20:04:22.645Z,100266.52
2023-09-19T20:18:15.445Z,100272.73
2023-09-19T20:27:33.613Z,100273.59
2023-09-19T20:39:11.641Z,100279.94
2023-09-19T20:41:58.350Z,100277.31
2023-09-19T20:44:47.315Z,100277.79
2023-09-19T20:47:24.953Z,100283.85
2023-09-19T20:49:57.489Z,100278.37
2023-09-19T20:52:25.324Z,100277.02
2023-09-19T20:54:54.152Z,100273.28
2023-09-19T20:57:27.934Z,100275.69
2023-09-19T21:00:27.183Z,100277.50
2023-09-19T21:03:39.778Z,100279.49
2023-09-19T21:06:14.542Z,100281.22
2023-09-19T21:08:43.370Z,100279.86
2023-09-19T21:11:24.478Z,100281.63
2023-09-19T21:13:57.023Z,100286.33
2023-09-19T21:16:29.129Z,100291.24
2023-09-19T21:19:04.701Z,100294.59
2023-09-19T21:21:38.111Z,100291.21
2023-09-19T21:24:12.704Z,100292.28
2023-09-19T21:26:42.716Z,100292.77
2023-09-19T21:29:11.507Z,100294.48
2023-09-19T21:31:43.143Z,100291.06
2023-09-19T21:34:10.732Z,100297.26
2023-09-19T21:36:45.472Z,100298.33
2023-09-19T21:39:14.503Z,100298.85
2023-09-19T21:41:42.407Z,100294.04
2023-09-19T21:44:12.968Z,100297.67
2023-09-19T21:46:40.664Z,100298.95
2023-09-19T21:49:08.526Z,100298.55
2023-09-19T21:51:35.963Z,100296.71
2023-09-19T21:54:04.067Z,100297.86
2023-09-19T21:56:31.920Z,100301.20
2023-09-19T21:59:26.552Z,100297.23
2023-09-19T22:01:54.201Z,100309.45
2023-09-19T22:04:26.991Z,100312.52
2023-09-19T22:06:55.787Z,100311.70
2023-09-19T22:09:31.098Z,100316.36
2023-09-19T22:12:07.651Z,100314.48
2023-09-19T22:14:36.246Z,100316.36
2023-09-19T22:17:04.457Z,100320.14
2023-09-19T22:19:32.235Z,100326.79
2023-09-19T22:22:02.167Z,100323.52
2023-09-19T22:24:31.433Z,100329.11
2023-09-19T22:27:01.086Z,100331.46
2023-09-19T22:29:30.023Z,100324.52
2023-09-19T22:31:59.501Z,100341.82
2023-09-19T22:34:30.955Z,100341.89
2023-09-19T22:36:59.679Z,100338.80
2023-09-19T22:39:30.143Z,100340.35
2023-09-19T22:42:00.145Z,100345.64
2023-09-19T22:44:28.173Z,100347.91
2023-09-19T22:46:56.598Z,100346.37
2023-09-19T22:49:27.181Z,100351.98
2023-09-19T22:51:59.723Z,100349.09
2023-09-19T22:54:28.190Z,100345.73
2023-09-19T22:56:55.575Z,100344.52
2023-09-19T22:59:22.862Z,100347.48
2023-09-19T23:01:51.093Z,100346.64
2023-09-19T23:10:48.479Z,100344.18
2023-09-19T23:13:26.297Z,100332.77
2023-09-19T23:16:14.893Z,100334.34
2023-09-19T23:24:43.449Z,100335.83
2023-09-19T23:27:13.641Z,100330.40
2023-09-19T23:29:41.603Z,100342.59
2023-09-19T23:32:11.405Z,100334.88
2023-09-19T23:34:40.446Z,100336.27
2023-09-19T23:48:18.031Z,100350.56
2023-09-19T23:50:47.926Z,100351.88
2023-09-19T23:53:15.562Z,100347.56
2023-09-19T23:55:42.857Z,100345.05
2023-09-19T23:58:10.550Z,100351.09
